createdAt,value
2016-08-19T00:00:11.073Z,85.22
2016-08-19T00:01:24.249Z,84.75
2016-08-19T00:02:37.429Z,84.84
2016-08-19T00:03:50.399Z,84.75
2016-08-19T00:05:03.595Z,85.03
2016-08-19T00:06:16.568Z,84.94
2016-08-19T00:07:29.536Z,85.13
2016-08-19T00:08:42.522Z,84.94
2016-08-19T00:09:55.501Z,85.41
2016-08-19T00:11:08.482Z,86.57
2016-08-19T00:12:21.457Z,85.57
2016-08-19T00:13:34.437Z,84.99
2016-08-19T00:14:47.416Z,84.65
2016-08-19T00:16:00.387Z,85.03
2016-08-19T00:17:13.368Z,85.32
2016-08-19T00:18:26.353Z,85.85
2016-08-19T00:19:39.534Z,85.57
2016-08-19T00:20:52.529Z,85.94
2016-08-19T00:22:05.507Z,85.47
2016-08-19T00:23:18.482Z,86.04
2016-08-19T00:24:31.469Z,85.94
2016-08-19T00:25:44.454Z,85.66
2016-08-19T00:26:57.439Z,86.14
2016-08-19T00:28:10.417Z,85.66
2016-08-19T00:29:23.395Z,85.66
2016-08-19T00:30:36.361Z,87.86
2016-08-19T00:31:49.550Z,87.29
2016-08-19T00:33:02.520Z,86.14
2016-08-19T00:34:15.516Z,86.9
2016-08-19T00:35:28.703Z,87.38
2016-08-19T00:36:41.676Z,86.61
2016-08-19T00:37:54.647Z,86.23
2016-08-19T00:39:07.832Z,85.66
2016-08-19T00:40:20.802Z,85.94
2016-08-19T00:41:33.779Z,85.28
2016-08-19T00:42:46.765Z,85.75
2016-08-19T00:43:59.746Z,85.66
2016-08-19T00:45:12.741Z,85.38
2016-08-19T00:46:25.732Z,85.75
2016-08-19T00:47:38.708Z,85.38
2016-08-19T00:48:51.898Z,85.85
2016-08-19T00:50:05.082Z,88.72
2016-08-19T00:51:18.062Z,90.01
2016-08-19T00:52:31.046Z,88.1
2016-08-19T00:53:44.421Z,86.86
2016-08-19T00:54:57.390Z,87.15
2016-08-19T00:56:10.378Z,87.62
2016-08-19T00:57:23.350Z,86.57
2016-08-19T00:58:36.520Z,85.9
2016-08-19T00:59:49.499Z,86.57
2016-08-19T01:01:02.477Z,86.1
2016-08-19T01:02:15.462Z,86.57
2016-08-19T01:03:28.649Z,86
2016-08-19T01:04:41.629Z,86.1
2016-08-19T01:05:54.610Z,85.9
2016-08-19T01:07:07.588Z,86.38
2016-08-19T01:08:20.574Z,86.1
2016-08-19T01:09:33.553Z,86
2016-08-19T01:10:46.580Z,86.29
2016-08-19T01:11:59.562Z,85.62
2016-08-19T01:13:12.537Z,85.9
2016-08-19T01:14:25.531Z,86.1
2016-08-19T01:15:38.525Z,86.29
2016-08-19T01:16:51.514Z,86.1
2016-08-19T01:18:04.702Z,86.67
2016-08-19T01:19:17.684Z,85.62
2016-08-19T01:20:30.860Z,85.81
2016-08-19T01:21:43.848Z,85.62
2016-08-19T01:22:56.825Z,85.14
2016-08-19T01:24:10.006Z,85.42
2016-08-19T01:25:22.990Z,85.71
2016-08-19T01:26:35.966Z,85.62
2016-08-19T01:27:48.932Z,86.29
2016-08-19T01:29:02.115Z,86.1
2016-08-19T01:30:15.118Z,85.67
2016-08-19T01:31:28.097Z,85.71
2016-08-19T01:32:41.077Z,85.58
2016-08-19T01:33:54.068Z,85.58
2016-08-19T01:35:07.050Z,87.1
2016-08-19T01:36:20.196Z,86.24
2016-08-19T01:37:33.171Z,85.86
2016-08-19T01:38:46.154Z,85.48
2016-08-19T01:39:59.135Z,85.38
2016-08-19T01:41:12.103Z,85.86
2016-08-19T01:42:25.295Z,86.15
2016-08-19T01:43:38.478Z,86.43
2016-08-19T01:44:51.456Z,85.86
2016-08-19T01:46:04.432Z,85.96
2016-08-19T01:47:17.405Z,86.15
2016-08-19T01:48:30.481Z,85.58
2016-08-19T01:49:43.467Z,86.15
2016-08-19T01:50:56.449Z,87.2
2016-08-19T01:52:09.428Z,86.34
2016-08-19T01:53:22.399Z,86.15
2016-08-19T01:54:35.379Z,85.77
2016-08-19T01:55:48.357Z,85.77
2016-08-19T01:57:01.742Z,85.86
2016-08-19T01:58:14.912Z,85.86
2016-08-19T01:59:27.907Z,85.96
2016-08-19T02:00:40.889Z,85.19
2016-08-19T02:01:53.873Z,86.15
2016-08-19T02:03:06.848Z,85.96
2016-08-19T02:04:19.829Z,86.05
2016-08-19T02:05:33.027Z,87.2
2016-08-19T02:06:46.000Z,86.96
2016-08-19T02:07:59.189Z,86.87
2016-08-19T02:09:12.171Z,87.01
2016-08-19T02:10:25.201Z,86.3
2016-08-19T02:11:38.182Z,86.49
2016-08-19T02:12:51.165Z,87.06
2016-08-19T02:14:04.141Z,90.4
2016-08-19T02:15:17.122Z,94.12
2016-08-19T02:16:30.102Z,94.22
2016-08-19T02:17:43.085Z,93.17
2016-08-19T02:18:56.059Z,91.45
2016-08-19T02:20:09.032Z,88.68
2016-08-19T02:21:22.008Z,88.97
2016-08-19T02:22:34.990Z,90.21
2016-08-19T02:23:47.970Z,93.46
2016-08-19T02:25:01.143Z,94.31
2016-08-19T02:26:14.121Z,94.22
2016-08-19T02:27:27.097Z,91.55
2016-08-19T02:28:40.076Z,91.36
2016-08-19T02:29:53.048Z,90.21
2016-08-19T02:31:06.030Z,88.4
2016-08-19T02:32:19.221Z,87.92
2016-08-19T02:33:32.418Z,87.15
2016-08-19T02:34:45.395Z,87.73
2016-08-19T02:35:58.372Z,87.54
2016-08-19T02:37:11.560Z,88.3
2016-08-19T02:38:24.551Z,86.68
2016-08-19T02:39:37.537Z,87.25
2016-08-19T02:40:50.514Z,87.06
2016-08-19T02:42:03.489Z,87.15
2016-08-19T02:43:16.461Z,86.58
2016-08-19T02:44:29.436Z,86.39
2016-08-19T02:45:42.417Z,86.39
2016-08-19T02:46:55.418Z,86.77
2016-08-19T02:48:08.398Z,86.39
2016-08-19T02:49:21.376Z,87.06
2016-08-19T02:50:34.366Z,87.15
2016-08-19T02:51:47.538Z,86.77
2016-08-19T02:53:00.531Z,86.77
2016-08-19T02:54:13.697Z,86.87
2016-08-19T02:55:26.683Z,86.49
2016-08-19T02:56:39.664Z,86.49
2016-08-19T02:57:52.641Z,86.68
2016-08-19T02:59:05.616Z,86.3
2016-08-19T03:00:18.587Z,86.73
2016-08-19T03:01:31.562Z,87.02
2016-08-19T03:02:44.740Z,88.92
2016-08-19T03:03:57.715Z,89.97
2016-08-19T03:05:10.690Z,90.17
2016-08-19T03:06:23.666Z,90.17
2016-08-19T03:07:36.649Z,90.73
2016-08-19T03:08:49.633Z,91.41
2016-08-19T03:10:02.620Z,90.64
2016-08-19T03:11:15.646Z,89.12
2016-08-19T03:12:28.615Z,88.35
2016-08-19T03:13:41.588Z,88.45
2016-08-19T03:14:54.575Z,88.45
2016-08-19T03:16:07.552Z,87.78
2016-08-19T03:17:20.518Z,88.07
2016-08-19T03:18:33.504Z,90.73
2016-08-19T03:19:46.694Z,92.36
2016-08-19T03:20:59.662Z,92.41
2016-08-19T03:22:12.638Z,91.36
2016-08-19T03:23:25.629Z,90.12
2016-08-19T03:24:38.598Z,88.78
2016-08-19T03:25:51.576Z,90.03
2016-08-19T03:27:04.554Z,89.83
2016-08-19T03:28:17.732Z,88.88
2016-08-19T03:29:30.724Z,88.5
2016-08-19T03:30:43.702Z,88.02
2016-08-19T03:31:56.882Z,88.12
2016-08-19T03:33:09.858Z,88.12
2016-08-19T03:34:22.845Z,88.07
2016-08-19T03:35:35.824Z,88.78
2016-08-19T03:36:48.800Z,91.17
2016-08-19T03:38:01.780Z,92.03
2016-08-19T03:39:14.756Z,90.41
2016-08-19T03:40:27.735Z,90.41
2016-08-19T03:41:40.710Z,89.93
2016-08-19T03:42:53.682Z,89.64
2016-08-19T03:44:06.665Z,89.93
2016-08-19T03:45:19.640Z,90.59
2016-08-19T03:46:32.609Z,91.46
2016-08-19T03:47:45.591Z,90.12
2016-08-19T03:48:58.566Z,89.07
2016-08-19T03:50:11.554Z,88.78
2016-08-19T03:51:24.529Z,88.88
2016-08-19T03:52:37.496Z,89.74
2016-08-19T03:53:50.477Z,88.4
2016-08-19T03:55:03.456Z,88.59
2016-08-19T03:56:16.433Z,88.02
2016-08-19T03:57:29.449Z,87.83
2016-08-19T03:58:42.632Z,87.54
2016-08-19T03:59:55.617Z,87.74
2016-08-19T04:01:08.594Z,87.93
2016-08-19T04:02:21.569Z,88.4
2016-08-19T04:03:34.537Z,87.64
2016-08-19T04:04:47.512Z,87.54
2016-08-19T04:06:00.485Z,87.74
2016-08-19T04:07:13.465Z,87.74
2016-08-19T04:08:26.443Z,87.83
2016-08-19T04:09:39.419Z,87.54
2016-08-19T04:10:52.604Z,87.54
2016-08-19T04:12:05.796Z,87.16
2016-08-19T04:13:18.783Z,86.88
2016-08-19T04:14:31.771Z,86.98
2016-08-19T04:15:44.745Z,87.54
2016-08-19T04:16:57.708Z,87.45
2016-08-19T04:18:10.893Z,87.54
2016-08-19T04:19:23.864Z,87.16
2016-08-19T04:20:37.024Z,87.54
2016-08-19T04:21:50.019Z,86.98
2016-08-19T04:23:02.999Z,86.4
2016-08-19T04:24:16.173Z,86.78
2016-08-19T04:25:29.148Z,87.16
2016-08-19T04:26:42.127Z,86.78
2016-08-19T04:27:55.109Z,87.54
2016-08-19T04:29:08.090Z,87.54
2016-08-19T04:30:21.069Z,87.07
2016-08-19T04:31:34.044Z,88.12
2016-08-19T04:32:47.013Z,93.55
2016-08-19T04:33:59.984Z,94.51
2016-08-19T04:35:12.963Z,95.27
2016-08-19T04:36:25.939Z,95.79
2016-08-19T04:37:38.917Z,95.41
2016-08-19T04:38:51.895Z,96.56
2016-08-19T04:40:04.873Z,94.08
2016-08-19T04:41:17.847Z,91.31
2016-08-19T04:42:30.825Z,90.08
2016-08-19T04:43:44.010Z,91.31
2016-08-19T04:44:57.182Z,93.32
2016-08-19T04:46:10.369Z,91.5
2016-08-19T04:47:23.345Z,89.98
2016-08-19T04:48:36.324Z,89.4
2016-08-19T04:49:49.323Z,88.84
2016-08-19T04:51:02.291Z,87.88
2016-08-19T04:52:15.465Z,87.69
2016-08-19T04:53:28.641Z,88.07
2016-08-19T04:54:41.622Z,88.69
2016-08-19T04:55:54.807Z,91.22
2016-08-19T04:57:07.777Z,89.98
2016-08-19T04:58:20.959Z,89.5
2016-08-19T04:59:33.936Z,88.4
2016-08-19T05:00:46.919Z,87.21
2016-08-19T05:01:59.907Z,87.4
2016-08-19T05:03:12.897Z,87.64
2016-08-19T05:04:25.889Z,87.07
2016-08-19T05:05:38.861Z,87.74
2016-08-19T05:06:51.836Z,88.21
2016-08-19T05:08:05.004Z,88.12
2016-08-19T05:09:17.996Z,88.02
2016-08-19T05:10:31.192Z,88.78
2016-08-19T05:11:44.176Z,88.02
2016-08-19T05:12:57.159Z,86.3
2016-08-19T05:14:10.331Z,85.45
2016-08-19T05:15:23.306Z,85.73
2016-08-19T05:16:36.289Z,86.49
2016-08-19T05:17:49.273Z,85.54
2016-08-19T05:19:02.260Z,85.45
2016-08-19T05:20:15.634Z,85.25
2016-08-19T05:21:28.615Z,84.88
2016-08-19T05:22:41.591Z,84.78
2016-08-19T05:23:54.569Z,84.63
2016-08-19T05:25:07.543Z,84.72
2016-08-19T05:26:20.720Z,85.64
2016-08-19T05:27:33.704Z,86.11
2016-08-19T05:28:46.885Z,84.59
2016-08-19T05:29:59.863Z,85.68
2016-08-19T05:31:12.839Z,86.06
2016-08-19T05:32:25.817Z,84.53
2016-08-19T05:33:38.789Z,84.06
2016-08-19T05:34:52.006Z,84.72
2016-08-19T05:36:04.980Z,85.49
2016-08-19T05:37:17.964Z,85.01
2016-08-19T05:38:31.140Z,83.39
2016-08-19T05:39:44.116Z,84.92
2016-08-19T05:40:57.093Z,83.58
2016-08-19T05:42:10.076Z,83.29
2016-08-19T05:43:23.056Z,84.06
2016-08-19T05:44:36.030Z,86.92
2016-08-19T05:45:49.004Z,87.21
2016-08-19T05:47:01.985Z,86.35
2016-08-19T05:48:15.175Z,84.53
2016-08-19T05:49:28.150Z,84.16
2016-08-19T05:50:41.326Z,83.77
2016-08-19T05:51:54.306Z,82.34
2016-08-19T05:53:07.280Z,82.38
2016-08-19T05:54:20.259Z,81.9
2016-08-19T05:55:33.238Z,81.43
2016-08-19T05:56:46.221Z,84
2016-08-19T05:57:59.206Z,83.91
2016-08-19T05:59:12.179Z,83.34
2016-08-19T06:00:25.155Z,83.05
2016-08-19T06:01:38.150Z,82.57
2016-08-19T06:02:51.127Z,84.1
2016-08-19T06:04:04.105Z,82.76
2016-08-19T06:05:17.083Z,82.29
2016-08-19T06:06:30.057Z,86.39
2016-08-19T06:07:43.028Z,88.49
2016-08-19T06:08:56.012Z,94.89
2016-08-19T06:10:08.984Z,94.98
2016-08-19T06:11:22.011Z,88.11
2016-08-19T06:12:34.978Z,88.87
2016-08-19T06:13:47.943Z,87.15
2016-08-19T06:15:00.912Z,85.29
2016-08-19T06:16:13.895Z,83.47
2016-08-19T06:17:26.866Z,81.37
2016-08-19T06:18:39.840Z,84.33
2016-08-19T06:19:52.823Z,84.43
2016-08-19T06:21:05.798Z,84.23
2016-08-19T06:22:18.765Z,88.25
2016-08-19T06:23:31.745Z,90.25
2016-08-19T06:24:44.709Z,89.01
2016-08-19T06:25:57.694Z,86.86
2016-08-19T06:27:10.879Z,93.36
2016-08-19T06:28:23.858Z,90.49
2016-08-19T06:29:36.847Z,87.72
2016-08-19T06:30:50.037Z,90.88
2016-08-19T06:32:03.213Z,90.92
2016-08-19T06:33:16.385Z,98.75
2016-08-19T06:34:29.381Z,99.99
2016-08-19T06:35:42.364Z,98.09
2016-08-19T06:36:55.344Z,98.38
2016-08-19T06:38:08.322Z,96.89
2016-08-19T06:39:21.303Z,92.69
2016-08-19T06:40:34.283Z,95.41
2016-08-19T06:41:47.265Z,94.79
2016-08-19T06:43:00.254Z,92.63
2016-08-19T06:44:13.239Z,87.5
2016-08-19T06:45:26.425Z,87.59
2016-08-19T06:46:39.411Z,86.96
2016-08-19T06:47:52.400Z,84.03
2016-08-19T06:49:05.388Z,80.9
2016-08-19T06:50:18.376Z,80.94
2016-08-19T06:51:31.363Z,79.92
2016-08-19T06:52:44.351Z,80.3
2016-08-19T06:53:57.336Z,78.23
2016-08-19T06:55:10.533Z,76.34
2016-08-19T06:56:23.527Z,75.38
2016-08-19T06:57:36.516Z,73.1
2016-08-19T06:58:49.506Z,76.23
2016-08-19T07:00:02.501Z,73.91
2016-08-19T07:01:15.489Z,72.12
2016-08-19T07:02:28.493Z,72.69
2016-08-19T07:03:41.488Z,71.64
2016-08-19T07:04:54.478Z,73.02
2016-08-19T07:06:07.475Z,72.06
2016-08-19T07:07:20.466Z,66.85
2016-08-19T07:08:33.672Z,69.97
2016-08-19T07:09:46.863Z,65.75
2016-08-19T07:10:59.857Z,63.85
2016-08-19T07:12:12.849Z,63.18
2016-08-19T07:13:26.050Z,62.63
2016-08-19T07:14:39.242Z,65.85
2016-08-19T07:15:52.232Z,65.37
2016-08-19T07:17:05.435Z,66.05
2016-08-19T07:18:18.424Z,65.08
2016-08-19T07:19:31.415Z,61.43
2016-08-19T07:20:44.407Z,63.08
2016-08-19T07:21:57.398Z,64.27
2016-08-19T07:23:10.401Z,63.04
2016-08-19T07:24:23.413Z,62.69
2016-08-19T07:25:36.411Z,62.04
2016-08-19T07:26:49.418Z,61.17
2016-08-19T07:28:02.414Z,59.94
2016-08-19T07:29:15.418Z,59.55
2016-08-19T07:30:28.412Z,60.39
2016-08-19T07:31:41.632Z,60.68
2016-08-19T07:32:54.633Z,61.26
2016-08-19T07:34:07.640Z,59.94
2016-08-19T07:35:20.643Z,59.26
2016-08-19T07:36:33.656Z,58.22
2016-08-19T07:37:46.669Z,57.15
2016-08-19T07:38:59.678Z,53.49
2016-08-19T07:40:12.673Z,57.11
2016-08-19T07:41:25.668Z,57.21
2016-08-19T07:42:38.671Z,55.98
2016-08-19T07:43:51.689Z,57.72
2016-08-19T07:45:04.694Z,58.37
2016-08-19T07:46:17.705Z,56.72
2016-08-19T07:47:30.708Z,57.4
2016-08-19T07:48:43.710Z,57.5
2016-08-19T07:49:56.717Z,56.98
2016-08-19T07:51:09.721Z,58.08
2016-08-19T07:52:22.921Z,58.18
2016-08-19T07:53:35.929Z,56.26
2016-08-19T07:54:48.944Z,55.58
2016-08-19T07:56:01.943Z,55.51
2016-08-19T07:57:14.955Z,55.32
2016-08-19T07:58:27.965Z,54.47
2016-08-19T07:59:41.166Z,54.99
2016-08-19T08:00:54.164Z,53.81
2016-08-19T08:02:07.369Z,53.14
2016-08-19T08:03:20.580Z,53.16
2016-08-19T08:04:33.585Z,52.19
2016-08-19T08:05:46.585Z,54.11
2016-08-19T08:06:59.594Z,53.23
2016-08-19T08:08:12.592Z,51.77
2016-08-19T08:09:25.614Z,52.94
2016-08-19T08:10:38.616Z,53.52
2016-08-19T08:11:51.673Z,52.97
2016-08-19T08:13:04.683Z,52.99
2016-08-19T08:14:17.688Z,50.85
2016-08-19T08:15:30.690Z,51.04
2016-08-19T08:16:43.703Z,51.95
2016-08-19T08:17:56.730Z,51.07
2016-08-19T08:19:09.737Z,50.12
2016-08-19T08:20:22.746Z,50.63
2016-08-19T08:21:35.750Z,48.41
2016-08-19T08:22:48.751Z,48.71
2016-08-19T08:24:01.775Z,48.34
2016-08-19T08:25:14.777Z,48.12
2016-08-19T08:26:27.782Z,47.44
2016-08-19T08:27:40.789Z,48.9
2016-08-19T08:28:54.000Z,49.19
2016-08-19T08:30:07.201Z,48.93
2016-08-19T08:31:20.619Z,48.16
2016-08-19T08:32:33.832Z,46.7
2016-08-19T08:33:46.836Z,47.46
2016-08-19T08:34:59.840Z,48.34
2016-08-19T08:36:12.861Z,49.22
2016-08-19T08:37:26.071Z,48.16
2016-08-19T08:38:39.080Z,47.77
2016-08-19T08:39:52.095Z,46.99
2016-08-19T08:41:05.104Z,47.58
2016-08-19T08:42:18.302Z,47.67
2016-08-19T08:43:31.298Z,47.8
2016-08-19T08:44:44.311Z,47.11
2016-08-19T08:45:57.324Z,44.4
2016-08-19T08:47:10.330Z,44.89
2016-08-19T08:48:23.337Z,44.59
2016-08-19T08:49:36.355Z,45.18
2016-08-19T08:50:49.562Z,45.36
2016-08-19T08:52:02.571Z,46.8
2016-08-19T08:53:15.784Z,46.78
2016-08-19T08:54:28.804Z,48.54
2016-08-19T08:55:41.858Z,48.51
2016-08-19T08:56:55.073Z,48.32
2016-08-19T08:58:08.278Z,46.5
2016-08-19T08:59:21.688Z,46.5
2016-08-19T09:00:34.706Z,46.16
2016-08-19T09:01:47.723Z,47.11
2016-08-19T09:03:00.725Z,46.72
2016-08-19T09:04:13.729Z,46.75
2016-08-19T09:05:26.744Z,46.33
2016-08-19T09:06:39.755Z,46.23
2016-08-19T09:07:52.755Z,44.84
2016-08-19T09:09:05.960Z,44.84
2016-08-19T09:10:18.974Z,44.84
2016-08-19T09:11:31.977Z,47.46
2016-08-19T09:12:44.987Z,45.31
2016-08-19T09:13:58.203Z,45.14
2016-08-19T09:15:11.417Z,46.29
2016-08-19T09:16:24.423Z,44.94
2016-08-19T09:17:37.433Z,45.33
2016-08-19T09:18:50.445Z,43.38
2016-08-19T09:20:03.657Z,45.62
2016-08-19T09:21:16.666Z,43.59
2016-08-19T09:22:29.672Z,44.09
2016-08-19T09:23:42.677Z,44.55
2016-08-19T09:24:55.895Z,44.16
2016-08-19T09:26:08.912Z,43.87
2016-08-19T09:27:21.926Z,45.92
2016-08-19T09:28:34.932Z,46.41
2016-08-19T09:29:48.137Z,43.96
2016-08-19T09:31:01.142Z,45.53
2016-08-19T09:32:14.372Z,43.89
2016-08-19T09:33:27.584Z,43.89
2016-08-19T09:34:59.443Z,44.67
2016-08-19T09:36:53.625Z,43.13
2016-08-19T09:38:21.970Z,46.28
2016-08-19T09:39:35.383Z,42.29
2016-08-19T09:40:48.639Z,40.35
2016-08-19T09:42:01.665Z,42.58
2016-08-19T09:43:14.663Z,43.37
2016-08-19T09:44:27.666Z,45.03
2016-08-19T09:45:40.670Z,40.33
2016-08-19T09:46:53.694Z,44.95
2016-08-19T09:48:06.695Z,41.45
2016-08-19T09:49:19.703Z,43.8
2016-08-19T09:50:32.707Z,41.84
2016-08-19T09:51:45.723Z,38.92
2016-08-19T09:52:58.740Z,39.19
2016-08-19T09:54:11.946Z,39.49
2016-08-19T09:55:24.955Z,38.02
2016-08-19T09:56:37.957Z,37.02
2016-08-19T09:57:50.964Z,37.88
2016-08-19T09:59:04.189Z,42.38
2016-08-19T10:00:17.397Z,43.73
2016-08-19T10:01:30.403Z,41.88
2016-08-19T10:02:43.402Z,44.34
2016-08-19T10:03:56.419Z,46.69
2016-08-19T10:05:09.629Z,40.43
2016-08-19T10:06:22.633Z,40.84
2016-08-19T10:07:36.038Z,38.39
2016-08-19T10:08:49.040Z,38.2
2016-08-19T10:10:02.050Z,40.84
2016-08-19T10:11:15.055Z,38.68
2016-08-19T10:12:28.056Z,37.79
2016-08-19T10:13:41.066Z,38.18
2016-08-19T10:14:54.072Z,40.92
2016-08-19T10:16:07.084Z,42.97
2016-08-19T10:17:20.093Z,41.8
2016-08-19T10:18:33.299Z,42.11
2016-08-19T10:19:46.296Z,39.88
2016-08-19T10:20:59.301Z,39.69
2016-08-19T10:22:12.312Z,39.69
2016-08-19T10:23:25.320Z,41.05
2016-08-19T10:24:38.321Z,40.76
2016-08-19T10:25:51.331Z,42.23
2016-08-19T10:27:04.345Z,37.54
2016-08-19T10:28:17.346Z,39.7
2016-08-19T10:29:30.344Z,40.48
2016-08-19T10:30:43.353Z,37.74
2016-08-19T10:31:56.377Z,37.54
2016-08-19T10:33:09.382Z,37.84
2016-08-19T10:34:22.385Z,40.29
2016-08-19T10:35:35.588Z,39.9
2016-08-19T10:36:48.810Z,38.35
2016-08-19T10:38:01.821Z,37.86
2016-08-19T10:39:14.822Z,36.09
2016-08-19T10:40:27.831Z,37.66
2016-08-19T10:41:41.041Z,38.15
2016-08-19T10:42:54.058Z,35.31
2016-08-19T10:44:07.058Z,37.07
2016-08-19T10:45:20.078Z,38.25
2016-08-19T10:46:33.084Z,35.41
2016-08-19T10:47:46.305Z,34.81
2016-08-19T10:48:59.306Z,36.29
2016-08-19T10:50:12.506Z,36.49
2016-08-19T10:51:25.520Z,37.65
2016-08-19T10:52:38.525Z,37.96
2016-08-19T10:53:51.526Z,37.37
2016-08-19T10:55:04.545Z,38.85
2016-08-19T10:56:17.548Z,38.68
2016-08-19T10:57:30.557Z,37.21
2016-08-19T10:58:43.575Z,38.6
2016-08-19T10:59:56.600Z,38.4
2016-08-19T11:01:09.602Z,38.8
2016-08-19T11:02:22.613Z,40.94
2016-08-19T11:03:35.640Z,37.13
2016-08-19T11:04:48.643Z,37.01
2016-08-19T11:06:01.647Z,34.46
2016-08-19T11:07:14.649Z,37.9
2016-08-19T11:08:27.659Z,36.52
2016-08-19T11:09:40.660Z,38.19
2016-08-19T11:10:53.679Z,36.15
2016-08-19T11:12:06.737Z,35.55
2016-08-19T11:13:19.747Z,34.77
2016-08-19T11:14:32.769Z,35.06
2016-08-19T11:15:45.966Z,33
2016-08-19T11:16:58.981Z,36.32
2016-08-19T11:18:12.002Z,37.68
2016-08-19T11:19:25.218Z,36.51
2016-08-19T11:20:38.228Z,38.46
2016-08-19T11:21:51.244Z,40.53
2016-08-19T11:23:04.656Z,37.19
2016-08-19T11:24:17.664Z,37.09
2016-08-19T11:25:30.684Z,35.91
2016-08-19T11:26:43.729Z,41.43
2016-08-19T11:27:56.733Z,39.37
2016-08-19T11:29:09.741Z,41.16
2016-08-19T11:30:22.746Z,39.78
2016-08-19T11:31:35.760Z,40.27
2016-08-19T11:32:48.777Z,40.27
2016-08-19T11:34:01.787Z,36.85
2016-08-19T11:35:14.786Z,39.29
2016-08-19T11:36:27.795Z,40.29
2016-08-19T11:37:40.894Z,39.9
2016-08-19T11:38:53.907Z,41.47
2016-08-19T11:40:06.909Z,41.59
2016-08-19T11:41:19.919Z,38.62
2016-08-19T11:42:32.923Z,40.58
2016-08-19T11:43:45.942Z,38.52
2016-08-19T11:44:58.973Z,39.7
2016-08-19T11:46:11.992Z,37.13
2016-08-19T11:47:24.994Z,40.66
2016-08-19T11:48:38.002Z,37.03
2016-08-19T11:49:51.002Z,36.91
2016-08-19T11:51:04.009Z,36.99
2016-08-19T11:52:17.017Z,38.37
2016-08-19T11:53:30.036Z,36.6
2016-08-19T11:54:43.062Z,38.15
2016-08-19T11:55:56.063Z,41.58
2016-08-19T11:57:09.274Z,39.43
2016-08-19T11:58:22.280Z,40.01
2016-08-19T11:59:35.286Z,38.93
2016-08-19T12:00:48.316Z,41.98
2016-08-19T12:02:01.312Z,38.35
2016-08-19T12:03:14.327Z,39.03
2016-08-19T12:04:27.336Z,39.8
2016-08-19T12:05:40.337Z,40.98
2016-08-19T12:06:53.746Z,41.66
2016-08-19T12:08:06.755Z,38.13
2016-08-19T12:09:19.762Z,39.31
2016-08-19T12:10:32.765Z,37.25
2016-08-19T12:11:45.784Z,38.62
2016-08-19T12:12:58.887Z,35.78
2016-08-19T12:14:11.887Z,36.35
2016-08-19T12:15:25.094Z,36.24
2016-08-19T12:16:38.270Z,36.12
2016-08-19T12:17:51.476Z,37.98
2016-08-19T12:19:04.491Z,40.43
2016-08-19T12:20:17.488Z,38.18
2016-08-19T12:21:30.501Z,35.85
2016-08-19T12:22:43.506Z,38.49
2016-08-19T12:23:56.506Z,37.81
2016-08-19T12:25:09.520Z,37.63
2016-08-19T12:26:22.512Z,40.64
2016-08-19T12:27:35.509Z,37.12
2016-08-19T12:28:48.713Z,35.27
2016-08-19T12:30:01.705Z,37.12
2016-08-19T12:31:14.708Z,38.39
2016-08-19T12:32:27.715Z,37.21
2016-08-19T12:33:40.751Z,41.35
2016-08-19T12:34:53.961Z,34.49
2016-08-19T12:36:07.178Z,34.26
2016-08-19T12:37:20.209Z,34.72
2016-08-19T12:38:33.213Z,35.89
2016-08-19T12:39:46.348Z,37.06
2016-08-19T12:40:59.343Z,38.04
2016-08-19T12:42:12.341Z,42.07
2016-08-19T12:43:25.340Z,46.47
2016-08-19T12:44:38.344Z,47.26
2016-08-19T12:45:51.347Z,44.71
2016-08-19T12:47:04.349Z,48.85
2016-08-19T12:48:17.348Z,46.11
2016-08-19T12:49:30.360Z,39.45
2016-08-19T12:50:43.351Z,37.79
2016-08-19T12:51:56.346Z,38.08
2016-08-19T12:53:09.350Z,36.69
2016-08-19T12:54:22.353Z,37.57
2016-08-19T12:55:35.357Z,38.26
2016-08-19T12:56:48.363Z,38.75
2016-08-19T12:58:01.361Z,39.7
2016-08-19T12:59:14.361Z,39.1
2016-08-19T13:00:27.357Z,39.78
2016-08-19T13:01:40.371Z,41.13
2016-08-19T13:02:53.376Z,40.25
2016-08-19T13:04:06.376Z,39.67
2016-08-19T13:05:19.371Z,41.82
2016-08-19T13:06:32.373Z,42.11
2016-08-19T13:07:45.374Z,41.21
2016-08-19T13:08:58.368Z,40.8
2016-08-19T13:10:11.384Z,40.7
2016-08-19T13:11:24.386Z,40.88
2016-08-19T13:12:37.463Z,42.63
2016-08-19T13:13:50.461Z,41.27
2016-08-19T13:15:03.667Z,43.12
2016-08-19T13:16:16.660Z,45.56
2016-08-19T13:17:29.660Z,44.29
2016-08-19T13:18:42.652Z,45.75
2016-08-19T13:19:55.861Z,42.24
2016-08-19T13:21:08.866Z,41.36
2016-08-19T13:22:21.864Z,50.63
2016-08-19T13:23:34.863Z,47.71
2016-08-19T13:24:47.892Z,41.07
2016-08-19T13:26:00.888Z,39.39
2016-08-19T13:27:14.080Z,39.39
2016-08-19T13:28:27.079Z,39.39
2016-08-19T13:29:40.280Z,39.76
2016-08-19T13:30:53.277Z,44.44
2016-08-19T13:32:06.494Z,42.28
2016-08-19T13:33:19.490Z,40.72
2016-08-19T13:34:32.741Z,39.82
2016-08-19T13:35:46.485Z,41.19
2016-08-19T13:36:59.491Z,42.06
2016-08-19T13:38:12.482Z,43.91
2016-08-19T13:39:25.493Z,43.23
2016-08-19T13:40:38.486Z,43.04
2016-08-19T13:41:51.485Z,42.65
2016-08-19T13:43:04.489Z,43.21
2016-08-19T13:44:17.496Z,41.65
2016-08-19T13:45:30.507Z,41.28
2016-08-19T13:46:43.718Z,41.09
2016-08-19T13:47:56.714Z,44.01
2016-08-19T13:49:09.709Z,42.06
2016-08-19T13:50:22.710Z,42.35
2016-08-19T13:51:35.718Z,42.94
2016-08-19T13:52:48.718Z,47.03
2016-08-19T13:54:01.712Z,45.28
2016-08-19T13:55:14.709Z,43.62
2016-08-19T13:56:27.910Z,44.69
2016-08-19T13:57:40.910Z,44.96
2016-08-19T13:58:53.914Z,47.78
2016-08-19T14:00:06.911Z,45.64
2016-08-19T14:01:19.906Z,44.09
2016-08-19T14:02:33.100Z,44.38
2016-08-19T14:03:46.302Z,44.86
2016-08-19T14:04:59.307Z,44.76
2016-08-19T14:06:12.294Z,41.85
2016-08-19T14:07:25.284Z,44.38
2016-08-19T14:08:38.274Z,44.67
2016-08-19T14:09:51.275Z,46.13
2016-08-19T14:11:04.278Z,44.57
2016-08-19T14:12:17.273Z,43.23
2016-08-19T14:13:30.330Z,43.71
2016-08-19T14:14:43.526Z,46.25
2016-08-19T14:15:56.520Z,45.18
2016-08-19T14:17:09.519Z,45.67
2016-08-19T14:18:22.518Z,43.71
2016-08-19T14:19:35.518Z,43.52
2016-08-19T14:20:48.674Z,42.65
2016-08-19T14:22:01.869Z,43.21
2016-08-19T14:23:14.853Z,43.13
2016-08-19T14:24:27.851Z,44.49
2016-08-19T14:25:40.855Z,42.94
2016-08-19T14:26:53.859Z,45.28
2016-08-19T14:28:06.861Z,44.69
2016-08-19T14:29:19.893Z,44.49
2016-08-19T14:30:32.892Z,42.16
2016-08-19T14:31:45.886Z,43.3
2016-08-19T14:32:58.895Z,46.23
2016-08-19T14:34:12.090Z,46.23
2016-08-19T14:35:25.088Z,45.06
2016-08-19T14:36:38.095Z,45.06
2016-08-19T14:37:51.085Z,45.64
2016-08-19T14:39:04.100Z,50.41
2016-08-19T14:40:17.115Z,47.2
2016-08-19T14:41:30.115Z,45.15
2016-08-19T14:42:43.102Z,45.06
2016-08-19T14:43:56.104Z,45.06
2016-08-19T14:45:09.307Z,45.25
2016-08-19T14:46:22.297Z,44.57
2016-08-19T14:47:35.284Z,48.46
2016-08-19T14:48:48.276Z,48.66
2016-08-19T14:50:01.472Z,47.39
2016-08-19T14:51:14.467Z,49.34
2016-08-19T14:52:27.466Z,45.64
2016-08-19T14:53:40.461Z,45.04
2016-08-19T14:54:53.450Z,46.5
2016-08-19T14:56:06.436Z,45.52
2016-08-19T14:57:19.628Z,46.28
2016-08-19T14:58:32.827Z,47.64
2016-08-19T14:59:45.828Z,46.96
2016-08-19T15:00:58.830Z,47.64
2016-08-19T15:02:11.821Z,49.1
2016-08-19T15:03:25.208Z,47.25
2016-08-19T15:04:38.197Z,47.74
2016-08-19T15:05:51.186Z,49.1
2016-08-19T15:07:04.177Z,46.77
2016-08-19T15:08:17.167Z,54.25
2016-08-19T15:09:30.163Z,47.15
2016-08-19T15:10:43.163Z,51.82
2016-08-19T15:11:56.162Z,46.86
2016-08-19T15:13:09.159Z,45.01
2016-08-19T15:14:22.157Z,49.56
2016-08-19T15:15:35.147Z,49.76
2016-08-19T15:16:48.145Z,49.66
2016-08-19T15:18:01.140Z,49.66
2016-08-19T15:19:14.145Z,50.92
2016-08-19T15:20:27.144Z,49.46
2016-08-19T15:21:40.337Z,48.39
2016-08-19T15:22:53.328Z,46.18
2016-08-19T15:24:06.322Z,44.82
2016-08-19T15:25:19.320Z,45.77
2016-08-19T15:26:32.311Z,48.61
2016-08-19T15:27:45.341Z,48.71
2016-08-19T15:28:58.554Z,48.68
2016-08-19T15:30:11.542Z,50.24
2016-08-19T15:31:24.557Z,51.79
2016-08-19T15:32:37.554Z,52.57
2016-08-19T15:33:50.551Z,52.96
2016-08-19T15:35:03.570Z,51.6
2016-08-19T15:36:16.571Z,51.11
2016-08-19T15:37:29.570Z,49.17
2016-08-19T15:38:42.572Z,50.53
2016-08-19T15:39:55.816Z,51.7
2016-08-19T15:41:08.821Z,55.1
2016-08-19T15:42:21.816Z,55.88
2016-08-19T15:43:35.015Z,52.15
2016-08-19T15:44:48.009Z,49.24